Time;durP1;ratioP1;P1;durP2;ratioP2;P2;SDS_P1;SDS_P2;PMS_P1;PMS_P2;Temp;Humidity;BMP_temperature;BMP_pressure;BME280_temperature;BME280_humidity;BME280_pressure;Samples;Min_cycle;Max_cycle;Signal;HPM_P1;HPM_P2
2022/07/10 00:01:08;;;;;;;6.88;1.55;;;13.50;94.60;;;;;;5057060;28;20098;-63
2022/07/10 00:03:34;;;;;;;7.57;1.60;;;13.60;94.70;;;;;;5049875;28;20037;-63
2022/07/10 00:05:59;;;;;;;5.10;1.40;;;13.50;94.60;;;;;;5048912;28;20041;-63
2022/07/10 00:08:25;;;;;;;7.90;1.70;;;13.50;94.70;;;;;;5047876;28;20063;-64
2022/07/10 00:10:50;;;;;;;7.78;1.45;;;13.50;94.80;;;;;;5052490;28;20033;-63
2022/07/10 00:13:16;;;;;;;5.63;1.42;;;13.50;94.80;;;;;;5066639;28;20689;-63
2022/07/10 00:15:42;;;;;;;6.53;1.10;;;13.50;94.90;;;;;;5049602;28;20091;-63
2022/07/10 00:18:07;;;;;;;11.15;1.08;;;13.40;94.90;;;;;;5051847;28;20043;-63
2022/07/10 00:20:34;;;;;;;4.93;1.27;;;13.40;95.00;;;;;;5048919;28;20116;-63
2022/07/10 00:22:59;;;;;;;3.25;1.30;;;13.30;95.10;;;;;;5048091;28;20485;-63
2022/07/10 00:25:25;;;;;;;8.57;1.30;;;13.30;95.20;;;;;;5046674;28;20049;-63
2022/07/10 00:27:50;;;;;;;4.47;1.30;;;13.20;95.50;;;;;;5062389;28;20040;-63
2022/07/10 00:30:16;;;;;;;8.85;1.65;;;13.10;95.50;;;;;;5055086;28;20049;-63
2022/07/10 00:32:42;;;;;;;8.48;1.60;;;13.10;95.60;;;;;;5049631;28;20028;-63
2022/07/10 00:35:08;;;;;;;8.40;1.40;;;13.00;95.80;;;;;;5048600;28;20645;-63
2022/07/10 00:37:34;;;;;;;6.57;1.50;;;13.00;96.00;;;;;;5048289;28;20637;-63
2022/07/10 00:40:00;;;;;;;6.90;1.63;;;12.90;96.10;;;;;;5048160;28;20064;-63
2022/07/10 00:42:27;;;;;;;8.15;1.75;;;13.00;96.30;;;;;;5050687;28;20025;-63
2022/07/10 00:44:52;;;;;;;5.00;1.40;;;12.90;96.40;;;;;;5037847;28;20064;-63
2022/07/10 00:47:19;;;;;;;4.93;1.45;;;12.90;96.50;;;;;;5053177;28;20044;-63
2022/07/10 00:49:46;;;;;;;5.47;1.20;;;12.90;96.50;;;;;;5054188;28;20437;-63
2022/07/10 00:52:16;;;;;;;6.85;1.38;;;12.80;96.50;;;;;;5053144;28;20041;-63
2022/07/10 00:54:45;;;;;;;8.15;1.58;;;12.80;96.60;;;;;;5047376;28;20072;-63
2022/07/10 00:57:14;;;;;;;5.05;1.35;;;12.70;96.70;;;;;;5064058;28;20036;-63
2022/07/10 00:59:40;;;;;;;3.42;1.02;;;12.70;96.70;;;;;;5069325;28;20039;-63
2022/07/10 01:02:06;;;;;;;6.78;1.50;;;12.60;96.70;;;;;;5066845;28;20029;-63
2022/07/10 01:04:33;;;;;;;3.00;1.20;;;12.60;96.90;;;;;;5052608;28;20047;-63
2022/07/10 01:06:59;;;;;;;5.13;1.42;;;12.60;97.00;;;;;;5052016;28;20045;-63
2022/07/10 01:09:25;;;;;;;4.78;0.90;;;12.50;97.10;;;;;;5050657;28;20447;-63
2022/07/10 01:11:51;;;;;;;4.55;1.38;;;12.50;97.30;;;;;;5053851;28;20115;-63
2022/07/10 01:14:17;;;;;;;8.10;1.50;;;12.50;97.50;;;;;;5062160;28;20128;-63
2022/07/10 01:16:43;;;;;;;5.57;1.80;;;12.50;97.60;;;;;;5061007;28;20415;-63
2022/07/10 01:19:09;;;;;;;4.95;1.20;;;12.70;97.70;;;;;;5058620;28;20097;-63
2022/07/10 01:21:36;;;;;;;6.88;1.17;;;12.70;97.70;;;;;;5058055;28;20112;-63
2022/07/10 01:24:09;;;;;;;6.60;1.35;;;12.70;97.70;;;;;;5067003;28;20071;-63
2022/07/10 01:26:36;;;;;;;7.00;1.10;;;12.70;98.00;;;;;;5051807;28;20041;-63
2022/07/10 01:29:06;;;;;;;6.32;1.40;;;12.70;97.90;;;;;;5060546;28;20089;-63
2022/07/10 01:31:32;;;;;;;6.60;1.40;;;12.60;98.10;;;;;;5052992;28;20032;-63
2022/07/10 01:34:00;;;;;;;4.55;1.30;;;12.60;98.00;;;;;;5055099;28;20052;-63
2022/07/10 01:36:28;;;;;;;8.25;1.15;;;12.60;98.30;;;;;;5063730;28;20040;-63
2022/07/10 01:38:54;;;;;;;8.90;1.40;;;12.50;98.50;;;;;;5059395;28;20109;-63
2022/07/10 01:41:20;;;;;;;5.95;1.10;;;12.50;98.60;;;;;;5053208;28;20480;-63
2022/07/10 01:43:47;;;;;;;3.42;1.17;;;12.50;98.80;;;;;;5053682;28;20056;-63
2022/07/10 01:46:14;;;;;;;5.32;1.35;;;12.50;99.20;;;;;;5053785;28;20041;-63
2022/07/10 01:48:40;;;;;;;7.00;1.40;;;12.50;99.40;;;;;;5067171;28;20059;-63
2022/07/10 01:51:07;;;;;;;6.22;1.33;;;12.60;99.60;;;;;;5053881;28;20496;-63
2022/07/10 01:53:32;;;;;;;7.03;1.75;;;12.60;99.90;;;;;;5060925;28;20043;-63
2022/07/10 01:56:00;;;;;;;4.47;1.35;;;12.70;99.90;;;;;;5056550;28;20516;-63
2022/07/10 01:58:25;;;;;;;9.05;1.45;;;12.70;99.90;;;;;;5060549;28;20052;-63
2022/07/10 02:00:51;;;;;;;7.38;1.73;;;12.70;99.90;;;;;;5052853;28;20037;-63
2022/07/10 02:06:10;;;;;;;9.82;2.38;;;12.80;99.90;;;;;;5054705;28;20044;-64
2022/07/10 02:08:36;;;;;;;7.70;1.95;;;12.90;99.90;;;;;;5058549;28;20040;-63
2022/07/10 02:11:01;;;;;;;5.15;1.83;;;12.90;99.90;;;;;;5071347;28;20395;-63
2022/07/10 02:13:27;;;;;;;6.25;1.45;;;12.90;99.90;;;;;;5061241;28;20506;-63
2022/07/10 02:15:54;;;;;;;5.15;1.17;;;12.90;99.90;;;;;;5052090;28;20530;-63
2022/07/10 02:18:20;;;;;;;10.43;1.70;;;12.90;99.90;;;;;;5052605;28;20033;-63
2022/07/10 02:20:46;;;;;;;7.80;1.55;;;12.90;99.90;;;;;;5051535;28;20110;-63
2022/07/10 02:23:12;;;;;;;6.80;1.98;;;12.90;99.90;;;;;;5060946;28;20122;-63
2022/07/10 02:25:37;;;;;;;7.78;1.45;;;12.90;99.90;;;;;;5052420;28;20239;-63
2022/07/10 02:28:03;;;;;;;7.43;1.50;;;12.80;99.90;;;;;;5053942;28;20098;-63
2022/07/10 02:30:29;;;;;;;9.60;2.00;;;12.80;99.90;;;;;;5058911;28;20072;-63
2022/07/10 02:32:54;;;;;;;6.75;2.10;;;12.70;99.90;;;;;;5053664;28;20045;-63
2022/07/10 02:35:20;;;;;;;6.45;1.30;;;12.70;99.90;;;;;;5051171;28;20041;-63
2022/07/10 02:37:45;;;;;;;6.75;1.40;;;12.60;99.90;;;;;;5052069;28;20072;-63
2022/07/10 02:40:11;;;;;;;7.55;1.52;;;12.60;99.90;;;;;;5053511;28;20036;-63
2022/07/10 02:42:36;;;;;;;6.45;1.30;;;12.50;99.90;;;;;;5066196;28;20041;-63
2022/07/10 02:45:12;;;;;;;9.07;1.80;;;12.50;99.90;;;;;;5056180;28;20041;-63
2022/07/10 02:47:38;;;;;;;8.07;1.92;;;12.50;99.90;;;;;;5052427;28;20102;-63
2022/07/10 02:50:04;;;;;;;7.30;1.67;;;12.40;99.90;;;;;;5050228;28;20040;-63
2022/07/10 02:52:30;;;;;;;6.57;1.38;;;12.40;99.90;;;;;;5055069;28;20051;-63
2022/07/10 02:54:56;;;;;;;5.38;1.83;;;12.40;99.90;;;;;;5055904;28;20140;-63
2022/07/10 02:57:22;;;;;;;5.65;1.42;;;12.30;99.90;;;;;;5053141;28;20056;-63
2022/07/10 02:59:48;;;;;;;8.48;1.92;;;12.30;99.90;;;;;;5049371;28;20033;-63
2022/07/10 03:02:13;;;;;;;8.60;1.73;;;12.30;99.90;;;;;;5051670;28;20036;-62
2022/07/10 03:04:43;;;;;;;5.82;1.60;;;12.20;99.90;;;;;;5051016;28;20462;-62
2022/07/10 03:07:09;;;;;;;5.32;1.27;;;12.20;99.90;;;;;;5051547;28;20052;-63
2022/07/10 03:09:34;;;;;;;8.02;1.40;;;12.10;99.90;;;;;;5053911;28;20036;-63
2022/07/10 03:12:03;;;;;;;6.22;1.30;;;12.10;99.90;;;;;;5054811;28;20086;-62
2022/07/10 03:14:28;;;;;;;5.82;1.42;;;12.00;99.90;;;;;;5051933;28;20542;-63
2022/07/10 03:16:54;;;;;;;5.53;1.70;;;12.00;99.90;;;;;;5058715;28;20041;-63
2022/07/10 03:19:19;;;;;;;5.80;0.95;;;12.00;99.90;;;;;;5051271;28;20039;-63
2022/07/10 03:21:45;;;;;;;4.20;1.10;;;12.00;99.90;;;;;;5060145;28;20041;-63
2022/07/10 03:24:11;;;;;;;6.40;1.42;;;11.90;99.90;;;;;;5049722;28;20365;-63
2022/07/10 03:26:37;;;;;;;6.95;2.25;;;11.90;99.90;;;;;;5068886;28;20037;-63
2022/07/10 03:29:03;;;;;;;5.95;1.20;;;11.90;99.90;;;;;;5063106;28;20502;-63
2022/07/10 03:31:28;;;;;;;5.75;1.42;;;11.90;99.90;;;;;;5051601;28;20048;-63
2022/07/10 03:33:54;;;;;;;3.67;0.90;;;11.90;99.90;;;;;;5054659;28;20048;-63
2022/07/10 03:36:20;;;;;;;10.45;1.85;;;11.90;99.90;;;;;;5050327;28;20037;-63
2022/07/10 03:38:46;;;;;;;8.25;1.30;;;11.90;99.90;;;;;;5049028;28;20120;-63
2022/07/10 03:41:12;;;;;;;4.97;1.00;;;12.00;99.90;;;;;;5050978;28;20047;-63
2022/07/10 03:43:38;;;;;;;4.88;1.13;;;12.00;99.90;;;;;;5051490;28;20090;-63
2022/07/10 03:46:04;;;;;;;7.00;1.23;;;12.10;99.90;;;;;;5048274;28;20048;-63
2022/07/10 03:48:35;;;;;;;4.75;1.10;;;12.10;99.90;;;;;;5070694;28;20422;-63
2022/07/10 03:51:01;;;;;;;4.30;1.13;;;12.10;99.90;;;;;;5055274;28;20041;-63
2022/07/10 03:53:27;;;;;;;6.43;1.45;;;12.20;99.90;;;;;;5056910;28;20514;-63
2022/07/10 03:55:53;;;;;;;5.50;1.30;;;12.30;99.90;;;;;;5051829;28;20110;-63
2022/07/10 03:58:22;;;;;;;6.15;1.02;;;12.40;99.90;;;;;;5055339;28;20084;-63
2022/07/10 04:00:48;;;;;;;4.85;1.25;;;12.50;99.90;;;;;;5064197;28;20380;-64
2022/07/10 04:03:13;;;;;;;6.03;1.30;;;12.60;99.90;;;;;;5068871;28;20032;-63
2022/07/10 04:05:39;;;;;;;4.45;1.10;;;12.70;99.90;;;;;;5049042;28;20492;-63
2022/07/10 04:08:06;;;;;;;5.43;1.48;;;12.70;99.90;;;;;;5048826;28;20459;-63
2022/07/10 04:10:31;;;;;;;5.95;1.58;;;12.80;99.90;;;;;;5049385;28;20578;-63
2022/07/10 04:12:57;;;;;;;7.60;1.70;;;12.80;99.90;;;;;;5051866;28;20037;-63
2022/07/10 04:15:24;;;;;;;4.07;0.82;;;12.90;99.90;;;;;;5055792;28;20111;-64
2022/07/10 04:17:50;;;;;;;6.97;1.23;;;12.90;99.90;;;;;;5070800;28;20036;-63
2022/07/10 04:20:19;;;;;;;3.78;1.27;;;13.00;99.90;;;;;;5062209;28;20079;-63
2022/07/10 04:22:45;;;;;;;2.90;1.00;;;13.10;99.90;;;;;;5051573;28;20044;-63
2022/07/10 04:25:11;;;;;;;5.60;1.25;;;13.10;99.90;;;;;;5052167;28;20032;-64
2022/07/10 04:27:37;;;;;;;5.90;1.20;;;13.10;99.90;;;;;;5059759;28;20048;-64
2022/07/10 04:30:03;;;;;;;5.55;1.17;;;13.10;99.90;;;;;;5055209;28;20045;-63
2022/07/10 04:32:29;;;;;;;6.88;1.00;;;13.20;99.90;;;;;;5060943;28;20036;-63
2022/07/10 04:34:55;;;;;;;6.70;1.40;;;13.20;99.90;;;;;;5068985;28;20051;-63
2022/07/10 04:37:21;;;;;;;6.47;1.40;;;13.30;99.90;;;;;;5058095;28;20059;-64
2022/07/10 04:39:46;;;;;;;5.60;1.00;;;13.30;99.70;;;;;;5058700;28;20138;-63
2022/07/10 04:42:12;;;;;;;7.90;1.30;;;13.40;99.70;;;;;;5055361;28;20041;-63
2022/07/10 04:44:37;;;;;;;4.15;1.55;;;13.40;99.60;;;;;;5060180;28;20040;-63
2022/07/10 04:47:04;;;;;;;5.45;1.10;;;13.50;99.60;;;;;;5070306;28;20470;-63
2022/07/10 04:49:30;;;;;;;5.72;1.30;;;13.50;99.50;;;;;;5053484;28;20045;-63
2022/07/10 04:51:56;;;;;;;5.20;1.40;;;13.50;99.60;;;;;;5064955;28;20051;-64
2022/07/10 04:54:22;;;;;;;8.60;1.25;;;13.50;99.60;;;;;;5068615;28;20540;-63
2022/07/10 04:56:48;;;;;;;5.47;1.00;;;13.60;99.60;;;;;;5055345;28;20377;-63
2022/07/10 04:59:13;;;;;;;2.70;1.02;;;13.60;99.50;;;;;;5061365;28;20025;-63
2022/07/10 05:01:39;;;;;;;5.68;1.10;;;13.70;99.50;;;;;;5069772;28;20035;-64
2022/07/10 05:04:04;;;;;;;5.50;1.00;;;13.80;99.50;;;;;;5052855;28;20045;-63
2022/07/10 05:06:30;;;;;;;6.95;0.95;;;13.80;99.50;;;;;;5054565;28;20052;-64
2022/07/10 05:08:56;;;;;;;6.15;1.17;;;13.80;99.50;;;;;;5051831;28;20036;-63
2022/07/10 05:11:22;;;;;;;7.35;1.40;;;13.90;99.50;;;;;;5055309;28;20037;-63
2022/07/10 05:13:48;;;;;;;7.85;1.40;;;13.90;99.50;;;;;;5063923;28;20124;-63
2022/07/10 05:16:16;;;;;;;5.07;1.08;;;14.00;99.60;;;;;;5053216;28;20377;-63
2022/07/10 05:18:42;;;;;;;6.32;1.50;;;14.00;99.60;;;;;;5053069;28;20029;-63
2022/07/10 05:21:08;;;;;;;6.00;1.30;;;14.00;99.70;;;;;;5059160;28;20094;-63
2022/07/10 05:23:34;;;;;;;7.15;1.20;;;14.10;99.60;;;;;;5062404;28;20601;-63
2022/07/10 05:26:00;;;;;;;7.55;1.95;;;14.10;99.70;;;;;;5058370;28;20055;-63
2022/07/10 05:28:25;;;;;;;5.95;1.58;;;14.20;99.70;;;;;;5056652;28;20037;-63
2022/07/10 05:30:51;;;;;;;6.63;1.13;;;14.20;99.80;;;;;;5068733;28;20157;-64
2022/07/10 05:33:17;;;;;;;6.53;1.30;;;14.30;99.80;;;;;;5057280;28;20385;-63
2022/07/10 05:35:43;;;;;;;8.38;1.63;;;14.30;99.90;;;;;;5063951;28;20128;-63
2022/07/10 05:38:08;;;;;;;5.93;1.05;;;14.40;99.90;;;;;;5058935;28;20124;-63
2022/07/10 05:40:34;;;;;;;6.20;1.33;;;14.50;99.90;;;;;;5052762;28;20041;-63
2022/07/10 05:43:00;;;;;;;9.93;1.30;;;14.60;99.80;;;;;;5053252;28;20056;-63
2022/07/10 05:45:26;;;;;;;5.88;1.50;;;14.60;99.80;;;;;;5061249;28;20040;-64
2022/07/10 05:47:51;;;;;;;7.30;1.70;;;14.70;99.80;;;;;;5061614;28;20044;-63
2022/07/10 05:50:17;;;;;;;4.40;1.60;;;14.70;99.90;;;;;;5051263;28;20036;-64
2022/07/10 05:52:43;;;;;;;9.55;1.73;;;14.80;99.90;;;;;;5052929;28;20075;-64
2022/07/10 05:55:08;;;;;;;4.65;1.48;;;14.80;99.90;;;;;;5063126;28;20525;-64
2022/07/10 05:57:35;;;;;;;4.75;1.45;;;14.80;99.80;;;;;;5056223;28;20114;-63
2022/07/10 06:00:03;;;;;;;7.53;1.45;;;14.80;99.80;;;;;;5053096;28;20050;-63
2022/07/10 06:02:29;;;;;;;6.03;1.40;;;14.90;99.70;;;;;;5051896;28;20041;-63
2022/07/10 06:04:54;;;;;;;4.72;1.40;;;14.90;99.70;;;;;;5063472;28;20063;-64
2022/07/10 06:07:20;;;;;;;4.97;1.30;;;14.90;99.80;;;;;;5059023;28;20079;-64
2022/07/10 06:09:46;;;;;;;9.68;1.55;;;15.00;99.80;;;;;;5051203;28;20048;-63
2022/07/10 06:12:11;;;;;;;6.65;1.40;;;15.00;99.80;;;;;;5053777;28;20037;-63
2022/07/10 06:14:37;;;;;;;4.57;1.17;;;15.10;99.70;;;;;;5053162;28;20037;-63
2022/07/10 06:17:03;;;;;;;6.53;1.15;;;15.20;99.70;;;;;;5060403;28;20080;-63
2022/07/10 06:19:28;;;;;;;8.07;1.52;;;15.20;99.60;;;;;;5062340;28;20041;-63
2022/07/10 06:24:38;;;;;;;5.85;1.30;;;15.30;99.40;;;;;;5053060;28;20040;-63
2022/07/10 06:27:04;;;;;;;6.63;1.33;;;15.30;99.20;;;;;;5050513;28;20032;-63
2022/07/10 06:29:30;;;;;;;6.07;1.70;;;15.30;98.90;;;;;;5056937;28;20090;-63
2022/07/10 06:31:59;;;;;;;4.50;1.50;;;15.40;98.90;;;;;;5066599;28;20044;-63
2022/07/10 06:34:24;;;;;;;4.35;1.40;;;15.40;98.90;;;;;;5049676;28;20503;-63
2022/07/10 06:36:50;;;;;;;4.57;1.20;;;15.40;98.90;;;;;;5045561;28;20037;-63
2022/07/10 06:39:15;;;;;;;8.23;1.50;;;15.40;98.80;;;;;;5062210;28;20098;-64
2022/07/10 06:41:41;;;;;;;7.15;1.70;;;15.40;98.70;;;;;;5051643;28;20086;-64
2022/07/10 06:44:06;;;;;;;11.77;1.70;;;15.40;98.70;;;;;;5049455;28;20393;-64
2022/07/10 06:46:32;;;;;;;6.78;1.40;;;15.40;98.80;;;;;;5061431;28;20040;-63
2022/07/10 06:48:58;;;;;;;4.82;1.20;;;15.30;99.20;;;;;;5050591;28;20053;-64
2022/07/10 06:51:24;;;;;;;7.70;1.75;;;15.20;99.70;;;;;;5054194;28;20037;-64
2022/07/10 06:53:50;;;;;;;6.75;1.42;;;15.10;99.90;;;;;;5047189;28;20429;-64
2022/07/10 06:56:16;;;;;;;7.43;1.42;;;15.00;99.90;;;;;;5050733;28;20052;-64
2022/07/10 06:58:42;;;;;;;5.25;1.60;;;14.90;99.90;;;;;;5059382;28;20032;-64
2022/07/10 07:01:07;;;;;;;6.88;1.45;;;14.90;99.90;;;;;;5057239;28;20090;-64
2022/07/10 07:03:33;;;;;;;6.22;1.70;;;15.00;99.90;;;;;;5053131;28;20513;-64
2022/07/10 07:05:58;;;;;;;10.13;1.83;;;15.10;99.90;;;;;;5053601;28;20428;-63
2022/07/10 07:08:24;;;;;;;6.35;1.63;;;15.20;99.90;;;;;;5048083;28;20056;-64
2022/07/10 07:10:50;;;;;;;3.75;1.17;;;15.30;99.90;;;;;;5050744;28;20044;-63
2022/07/10 07:13:15;;;;;;;7.68;1.55;;;15.30;99.90;;;;;;5059620;28;20040;-63
2022/07/10 07:15:46;;;;;;;8.23;1.80;;;15.40;99.90;;;;;;5058924;28;20044;-64
2022/07/10 07:18:15;;;;;;;5.88;1.48;;;15.30;99.90;;;;;;5060201;28;20496;-64
2022/07/10 07:23:26;;;;;;;5.43;1.90;;;15.10;99.90;;;;;;5050294;28;20123;-65
2022/07/10 07:25:52;;;;;;;7.72;1.58;;;15.00;99.90;;;;;;5052322;28;20127;-64
2022/07/10 07:28:19;;;;;;;4.97;1.58;;;14.90;99.90;;;;;;5056971;28;20063;-64
2022/07/10 07:30:47;;;;;;;6.78;1.88;;;14.90;99.90;;;;;;5066872;28;20040;-64
2022/07/10 07:33:12;;;;;;;4.22;1.55;;;14.90;99.90;;;;;;5064530;28;20048;-64
2022/07/10 07:35:39;;;;;;;9.38;2.15;;;15.00;99.90;;;;;;5050542;28;20048;-64
2022/07/10 07:38:05;;;;;;;5.68;1.55;;;15.10;99.90;;;;;;5050154;28;20140;-63
2022/07/10 07:40:31;;;;;;;5.93;1.42;;;15.20;99.90;;;;;;5066517;28;20040;-63
2022/07/10 07:42:57;;;;;;;6.88;1.52;;;15.30;99.90;;;;;;5072844;28;20468;-63
2022/07/10 07:45:24;;;;;;;5.05;1.35;;;15.40;99.90;;;;;;5068477;28;20048;-63
2022/07/10 07:47:53;;;;;;;9.07;1.45;;;15.50;99.90;;;;;;5070807;28;20043;-63
2022/07/10 07:50:21;;;;;;;6.75;1.70;;;15.70;99.90;;;;;;5067272;28;20043;-64
2022/07/10 07:52:48;;;;;;;4.30;1.70;;;15.80;99.90;;;;;;5068485;28;20466;-63
2022/07/10 07:55:16;;;;;;;1.88;1.20;;;16.10;99.90;;;;;;5062034;28;20061;-63
2022/07/10 07:57:43;;;;;;;6.47;1.48;;;16.30;99.90;;;;;;5071140;28;20047;-63
2022/07/10 08:00:10;;;;;;;3.67;1.38;;;16.50;99.90;;;;;;5068326;28;20040;-63
2022/07/10 08:02:36;;;;;;;7.70;1.23;;;16.60;99.90;;;;;;5067572;28;20086;-63
2022/07/10 08:05:04;;;;;;;5.80;1.40;;;16.60;99.90;;;;;;5062311;28;20617;-64
2022/07/10 08:07:38;;;;;;;6.18;1.15;;;16.50;99.90;;;;;;5062731;28;20052;-63
2022/07/10 08:10:05;;;;;;;5.47;1.20;;;16.40;99.90;;;;;;5053488;28;20040;-63
2022/07/10 08:12:31;;;;;;;3.65;1.25;;;16.30;99.90;;;;;;5052577;28;20037;-63
2022/07/10 08:14:58;;;;;;;4.72;1.00;;;16.30;99.90;;;;;;5056163;28;20434;-63
2022/07/10 08:17:24;;;;;;;2.33;0.77;;;16.30;99.90;;;;;;5066914;28;20162;-63
2022/07/10 08:19:49;;;;;;;3.53;0.95;;;16.30;99.90;;;;;;5052344;28;20083;-63
2022/07/10 08:22:15;;;;;;;3.33;0.93;;;16.20;99.90;;;;;;5064623;28;20068;-63
2022/07/10 08:24:40;;;;;;;2.65;0.63;;;16.20;99.90;;;;;;5056241;28;20102;-63
2022/07/10 08:27:07;;;;;;;5.72;1.10;;;16.20;99.90;;;;;;5050302;28;20044;-62
2022/07/10 08:29:33;;;;;;;4.32;0.85;;;16.20;99.90;;;;;;5068578;28;20041;-63
2022/07/10 08:31:59;;;;;;;3.38;0.80;;;16.30;99.90;;;;;;5055554;28;20522;-63
2022/07/10 08:34:24;;;;;;;2.33;0.88;;;16.50;99.90;;;;;;5055562;28;20037;-63
2022/07/10 08:36:50;;;;;;;2.60;0.90;;;16.70;99.90;;;;;;5055858;28;20094;-64
2022/07/10 08:39:16;;;;;;;2.95;0.85;;;16.80;99.90;;;;;;5046496;28;20057;-63
2022/07/10 08:41:45;;;;;;;5.32;1.05;;;16.80;99.90;;;;;;5050292;28;20072;-63
2022/07/10 08:44:10;;;;;;;2.08;0.90;;;16.90;99.90;;;;;;5052401;28;20082;-64
2022/07/10 08:46:37;;;;;;;4.70;0.95;;;16.90;99.90;;;;;;5059439;28;20049;-64
2022/07/10 08:49:08;;;;;;;2.75;0.80;;;17.00;99.90;;;;;;5065702;28;20037;-63
2022/07/10 08:52:01;;;;;;;6.03;1.20;;;17.10;99.90;;;;;;5055760;28;20094;-64
2022/07/10 08:54:31;;;;;;;2.55;0.77;;;17.00;99.90;;;;;;5065610;28;20056;-63
2022/07/10 08:57:03;;;;;;;4.18;0.73;;;17.00;99.90;;;;;;5070414;28;20052;-64
2022/07/10 08:59:30;;;;;;;4.60;1.10;;;17.00;99.90;;;;;;5066945;28;20517;-63
2022/07/10 09:01:56;;;;;;;5.93;0.82;;;16.90;99.90;;;;;;5049547;28;20476;-64
2022/07/10 09:04:25;;;;;;;3.65;0.73;;;16.80;99.90;;;;;;5057599;28;20045;-64
2022/07/10 09:06:51;;;;;;;3.20;0.88;;;16.80;99.90;;;;;;5069414;28;20678;-64
2022/07/10 09:09:17;;;;;;;3.60;0.90;;;17.00;99.90;;;;;;5068788;28;20094;-64
2022/07/10 09:11:43;;;;;;;3.28;1.08;;;17.30;99.90;;;;;;5055199;28;20059;-64
2022/07/10 09:14:13;;;;;;;2.47;0.88;;;17.50;99.90;;;;;;5050833;28;20532;-64
2022/07/10 09:16:41;;;;;;;2.78;0.52;;;17.80;99.90;;;;;;5053196;28;20051;-64
2022/07/10 09:19:23;;;;;;;2.53;0.75;;;18.00;99.90;;;;;;5053167;28;20095;-65
2022/07/10 09:22:14;;;;;;;2.95;0.98;;;18.20;99.90;;;;;;5054771;28;20037;-64
2022/07/10 09:24:45;;;;;;;1.25;0.80;;;18.10;99.90;;;;;;5053460;28;20041;-65
2022/07/10 09:27:14;;;;;;;1.38;0.68;;;18.00;99.90;;;;;;5067314;28;20044;-64
2022/07/10 09:29:56;;;;;;;4.60;0.70;;;18.00;99.90;;;;;;5060427;28;20036;-64
2022/07/10 09:32:22;;;;;;;3.15;0.60;;;17.70;99.90;;;;;;5064672;28;20040;-64
2022/07/10 09:36:04;;;;;;;3.13;0.70;;;17.40;99.90;;;;;;5055200;28;20443;-64
2022/07/10 09:37:39;;;;;;;3.17;0.63;;;17.20;99.90;;;;;;5052173;28;20059;-66
2022/07/10 09:40:06;;;;;;;2.42;0.70;;;16.90;99.90;;;;;;5054300;28;20028;-65
2022/07/10 09:42:39;;;;;;;4.10;0.80;;;16.70;99.90;;;;;;5069349;28;20051;-66
2022/07/10 09:45:11;;;;;;;3.17;1.00;;;16.60;99.90;;;;;;5061351;28;20575;-64
2022/07/10 09:47:45;;;;;;;3.85;0.90;;;16.60;99.90;;;;;;5072293;28;20051;-64
2022/07/10 09:50:24;;;;;;;2.33;0.60;;;16.60;99.90;;;;;;5068019;28;20432;-65
2022/07/10 09:52:52;;;;;;;3.50;0.60;;;16.70;99.90;;;;;;5073689;28;20131;-65
2022/07/10 09:55:20;;;;;;;2.50;0.73;;;16.50;99.90;;;;;;5055665;28;20436;-66
2022/07/10 09:57:56;;;;;;;2.95;1.42;;;16.40;99.90;;;;;;5055852;28;20123;-64
2022/07/10 10:00:33;;;;;;;3.10;0.80;;;16.10;99.90;;;;;;5061475;28;20036;-64
2022/07/10 10:03:00;;;;;;;4.50;0.95;;;16.00;99.90;;;;;;5060848;28;20090;-64
2022/07/10 10:05:36;;;;;;;3.00;1.10;;;16.00;99.90;;;;;;5050313;28;20047;-64
2022/07/10 10:08:10;;;;;;;4.38;0.98;;;15.90;99.90;;;;;;5061777;28;20044;-64
2022/07/10 10:10:40;;;;;;;4.55;0.90;;;16.00;99.90;;;;;;5052599;28;20095;-64
2022/07/10 10:13:10;;;;;;;2.27;0.87;;;16.10;99.90;;;;;;5052438;28;20083;-64
2022/07/10 10:15:37;;;;;;;3.13;1.30;;;16.10;99.90;;;;;;5053017;28;20397;-65
2022/07/10 10:18:07;;;;;;;1.80;0.90;;;16.10;99.90;;;;;;5036326;28;20037;-64
2022/07/10 10:20:37;;;;;;;1.33;0.85;;;16.10;99.90;;;;;;5050719;28;20298;-63
2022/07/10 10:23:08;;;;;;;2.47;1.10;;;16.00;99.90;;;;;;5050876;28;20129;-64
2022/07/10 10:25:36;;;;;;;1.73;1.30;;;16.10;99.90;;;;;;5068713;28;20040;-63
2022/07/10 10:28:08;;;;;;;1.98;1.13;;;16.10;99.90;;;;;;5066398;28;20047;-63
2022/07/10 10:30:38;;;;;;;2.20;0.80;;;16.20;99.90;;;;;;5054650;28;20056;-63
2022/07/10 10:33:03;;;;;;;1.70;1.10;;;16.30;99.90;;;;;;5052970;28;20055;-64
2022/07/10 10:35:43;;;;;;;3.30;0.90;;;16.30;99.90;;;;;;5041401;28;20383;-64
2022/07/10 10:38:09;;;;;;;3.58;0.90;;;16.40;99.90;;;;;;5055216;28;20086;-64
2022/07/10 10:40:36;;;;;;;3.38;0.75;;;16.40;99.90;;;;;;5051930;28;20385;-63
2022/07/10 10:43:24;;;;;;;1.52;0.60;;;16.50;99.90;;;;;;5052209;28;20033;-63
2022/07/10 10:45:51;;;;;;;0.95;0.70;;;16.60;99.90;;;;;;5056498;28;20044;-63
2022/07/10 10:48:21;;;;;;;1.17;0.47;;;16.60;99.90;;;;;;5053796;28;20044;-63
2022/07/10 10:50:51;;;;;;;2.10;0.73;;;16.60;99.90;;;;;;5056570;28;20066;-63
2022/07/10 10:53:22;;;;;;;1.75;0.50;;;16.70;99.90;;;;;;5066387;28;20130;-63
2022/07/10 10:56:00;;;;;;;1.73;0.70;;;16.60;99.90;;;;;;5058145;28;20061;-64
2022/07/10 10:58:41;;;;;;;2.35;1.02;;;16.50;99.90;;;;;;5069873;28;20049;-64
2022/07/10 11:01:25;;;;;;;2.28;0.60;;;16.60;99.90;;;;;;5066432;28;20495;-63
2022/07/10 11:04:10;;;;;;;1.45;0.70;;;16.60;99.90;;;;;;5052103;28;20045;-63
2022/07/10 11:06:38;;;;;;;2.28;1.00;;;16.90;99.90;;;;;;5052018;28;20053;-63
2022/07/10 11:09:25;;;;;;;1.65;0.73;;;17.10;99.90;;;;;;5050154;28;20044;-63
2022/07/10 11:12:17;;;;;;;3.30;0.88;;;17.30;99.90;;;;;;5055620;28;20040;-63
2022/07/10 11:14:49;;;;;;;3.13;1.00;;;17.10;99.90;;;;;;5066052;28;20052;-64
2022/07/10 11:17:14;;;;;;;2.42;1.10;;;16.90;99.90;;;;;;5061671;28;20041;-64
2022/07/10 11:19:40;;;;;;;3.88;1.23;;;16.70;99.90;;;;;;5053856;28;20060;-64
2022/07/10 11:22:30;;;;;;;2.97;1.40;;;16.60;99.90;;;;;;5066851;28;20093;-64
2022/07/10 11:25:17;;;;;;;3.30;1.40;;;16.60;99.90;;;;;;5049090;28;20087;-63
2022/07/10 11:28:09;;;;;;;2.08;1.23;;;16.60;99.90;;;;;;5056031;28;20040;-63
2022/07/10 11:30:44;;;;;;;3.83;1.38;;;16.60;99.90;;;;;;5051687;28;20032;-63
2022/07/10 11:33:10;;;;;;;2.72;1.20;;;16.50;99.90;;;;;;5055136;28;20036;-63
2022/07/10 11:35:37;;;;;;;5.82;1.80;;;16.50;99.90;;;;;;5070839;28;20396;-63
2022/07/10 11:38:03;;;;;;;4.40;2.00;;;16.50;99.90;;;;;;5070068;28;20051;-63
2022/07/10 11:40:28;;;;;;;5.45;1.70;;;16.40;99.90;;;;;;5066459;28;20388;-63
2022/07/10 11:42:55;;;;;;;3.25;1.77;;;16.40;99.90;;;;;;5051545;28;20465;-63
2022/07/10 11:45:29;;;;;;;3.25;2.05;;;16.40;99.90;;;;;;5054196;28;20486;-63
2022/07/10 11:47:56;;;;;;;5.07;2.33;;;16.40;99.90;;;;;;5054793;28;20041;-63
2022/07/10 11:50:22;;;;;;;4.10;1.48;;;16.30;99.90;;;;;;5069759;28;20151;-64
2022/07/10 11:52:48;;;;;;;6.40;2.33;;;16.50;99.90;;;;;;5064068;28;20040;-63
2022/07/10 11:55:19;;;;;;;7.97;2.10;;;16.60;99.90;;;;;;5062568;28;20061;-63
2022/07/10 11:57:48;;;;;;;4.78;1.98;;;16.80;99.90;;;;;;5049717;28;20091;-63
2022/07/10 12:00:23;;;;;;;5.68;2.03;;;17.00;99.90;;;;;;5050454;28;20435;-64
2022/07/10 12:02:49;;;;;;;5.13;2.20;;;17.20;99.90;;;;;;5067192;28;20076;-63
2022/07/10 12:05:34;;;;;;;5.22;1.70;;;17.20;99.90;;;;;;5065592;28;20063;-63
2022/07/10 12:08:00;;;;;;;6.80;1.85;;;17.30;99.90;;;;;;5068817;28;20127;-63
2022/07/10 12:10:34;;;;;;;4.47;2.25;;;17.20;99.90;;;;;;5069650;28;20446;-64
2022/07/10 12:13:12;;;;;;;4.97;1.90;;;17.10;99.90;;;;;;5053689;28;20036;-65
2022/07/10 12:15:39;;;;;;;8.30;2.00;;;16.90;99.90;;;;;;5070194;28;20039;-66
2022/07/10 12:18:07;;;;;;;5.75;1.85;;;16.60;99.90;;;;;;5070053;28;20390;-66
2022/07/10 12:20:33;;;;;;;4.10;1.80;;;16.70;99.90;;;;;;5058040;28;20040;-67
2022/07/10 12:23:00;;;;;;;6.30;1.85;;;16.80;99.90;;;;;;5049622;28;20484;-66
2022/07/10 12:25:25;;;;;;;3.58;1.90;;;17.00;99.90;;;;;;5047890;28;20048;-65
2022/07/10 12:27:58;;;;;;;4.22;1.65;;;17.10;99.90;;;;;;5051412;28;20045;-65
2022/07/10 12:30:42;;;;;;;3.20;1.80;;;17.30;99.90;;;;;;5048895;28;20060;-65
2022/07/10 12:33:18;;;;;;;2.53;1.55;;;17.20;99.90;;;;;;5050896;28;20045;-65
2022/07/10 12:35:57;;;;;;;5.28;1.80;;;17.20;99.90;;;;;;5052034;28;20083;-65
2022/07/10 12:38:33;;;;;;;4.22;1.60;;;17.00;99.90;;;;;;5053179;28;20030;-66
2022/07/10 12:41:13;;;;;;;3.50;1.40;;;16.90;99.90;;;;;;5059188;28;20123;-65
2022/07/10 12:43:39;;;;;;;2.83;1.27;;;16.80;99.90;;;;;;5060750;28;20047;-65
2022/07/10 12:46:22;;;;;;;2.55;1.95;;;16.60;99.90;;;;;;5052397;28;20045;-65
2022/07/10 12:49:08;;;;;;;2.25;1.63;;;16.70;99.90;;;;;;5049997;28;20041;-65
2022/07/10 12:51:44;;;;;;;6.88;1.63;;;16.70;99.90;;;;;;5051329;28;20069;-65
2022/07/10 12:54:33;;;;;;;4.65;1.60;;;16.70;99.90;;;;;;5050860;28;20040;-64
2022/07/10 12:57:02;;;;;;;3.13;1.55;;;16.60;99.90;;;;;;5045535;28;20564;-64
2022/07/10 12:59:31;;;;;;;3.60;1.70;;;16.60;99.90;;;;;;5052369;28;20400;-64